createdAt,value
2022-11-29T00:01:25.317Z,94.30
2022-11-29T00:03:53.314Z,94.10
2022-11-29T00:06:23.101Z,94.00
2022-11-29T00:08:50.395Z,93.90
2022-11-29T00:11:39.108Z,93.70
2022-11-29T00:14:08.013Z,93.70
2022-11-29T00:16:35.591Z,93.70
2022-11-29T00:19:03.244Z,93.70
2022-11-29T00:21:30.452Z,93.80
2022-11-29T00:23:57.640Z,93.70
2022-11-29T00:26:24.845Z,93.70
2022-11-29T00:28:52.967Z,93.30
2022-11-29T00:31:22.957Z,93.60
2022-11-29T00:33:50.916Z,93.70
2022-11-29T00:36:18.793Z,93.80
2022-11-29T00:38:46.443Z,93.60
2022-11-29T00:41:13.891Z,93.70
2022-11-29T00:43:41.534Z,93.70
2022-11-29T00:46:09.769Z,93.70
2022-11-29T00:48:37.261Z,93.80
2022-11-29T00:51:05.923Z,93.80
2022-11-29T00:53:34.232Z,93.90
2022-11-29T00:56:02.672Z,94.00
2022-11-29T00:58:30.576Z,93.70
2022-11-29T01:00:57.976Z,93.80
2022-11-29T01:03:25.406Z,93.90
2022-11-29T01:05:52.836Z,93.90
2022-11-29T01:08:20.194Z,93.80
2022-11-29T01:10:47.385Z,94.00
2022-11-29T01:13:14.632Z,93.90
2022-11-29T01:15:42.118Z,94.00
2022-11-29T01:18:09.313Z,94.00
2022-11-29T01:20:36.425Z,94.00
2022-11-29T01:23:03.561Z,94.10
2022-11-29T01:25:32.056Z,94.10
2022-11-29T01:27:59.236Z,94.10
2022-11-29T01:30:26.438Z,94.20
2022-11-29T01:32:53.606Z,94.10
2022-11-29T01:35:23.946Z,94.00
2022-11-29T01:37:51.124Z,94.00
2022-11-29T01:40:18.404Z,94.00
2022-11-29T01:42:45.596Z,94.10
2022-11-29T01:45:24.656Z,94.00
2022-11-29T01:47:56.824Z,94.10
2022-11-29T01:50:24.425Z,94.10
2022-11-29T01:52:51.926Z,94.10
2022-11-29T01:55:19.424Z,94.10
2022-11-29T01:57:47.003Z,94.20
2022-11-29T02:00:17.641Z,94.20
2022-11-29T02:02:53.599Z,94.20
2022-11-29T02:05:22.171Z,94.20
2022-11-29T02:07:52.516Z,94.30
2022-11-29T02:10:20.368Z,94.20
2022-11-29T02:13:15.388Z,94.30
2022-11-29T02:15:45.917Z,94.40
2022-11-29T02:18:37.897Z,94.40
2022-11-29T02:21:28.597Z,94.50
2022-11-29T02:24:23.435Z,94.60
2022-11-29T02:27:09.215Z,94.40
2022-11-29T02:30:12.174Z,93.70
2022-11-29T02:32:48.260Z,94.00
2022-11-29T02:35:18.461Z,94.10
2022-11-29T02:38:09.856Z,94.00
2022-11-29T02:40:51.172Z,94.00
2022-11-29T02:43:59.047Z,94.00
2022-11-29T02:46:50.221Z,94.00
2022-11-29T02:49:44.115Z,94.00
2022-11-29T02:52:29.413Z,94.10
2022-11-29T02:55:33.394Z,94.00
2022-11-29T02:58:15.424Z,94.20
2022-11-29T03:00:51.398Z,94.20
2022-11-29T03:03:24.916Z,94.20
2022-11-29T03:06:11.859Z,94.20
2022-11-29T03:09:00.127Z,94.20
2022-11-29T03:11:38.313Z,94.20
2022-11-29T03:14:19.605Z,94.20
2022-11-29T03:17:24.716Z,94.20
2022-11-29T03:20:13.507Z,94.10
2022-11-29T03:23:06.100Z,94.00
2022-11-29T03:25:44.389Z,94.00
2022-11-29T03:28:40.806Z,94.00
2022-11-29T03:31:20.256Z,94.10
2022-11-29T03:33:59.315Z,94.20
2022-11-29T03:37:17.297Z,94.30
2022-11-29T03:39:44.484Z,94.90
2022-11-29T03:42:18.455Z,94.30
2022-11-29T03:44:56.176Z,94.40
2022-11-29T03:47:34.363Z,94.30
2022-11-29T03:50:06.427Z,94.30
2022-11-29T03:52:47.492Z,94.40
2022-11-29T03:55:29.331Z,94.40
2022-11-29T03:58:22.580Z,94.10
2022-11-29T04:00:49.722Z,94.40
2022-11-29T04:03:42.015Z,94.30
2022-11-29T04:06:46.885Z,94.30
2022-11-29T04:09:27.072Z,94.30
2022-11-29T04:12:49.360Z,94.40
2022-11-29T04:15:50.525Z,94.50
2022-11-29T04:18:35.557Z,94.30
2022-11-29T04:21:17.733Z,94.30
2022-11-29T04:24:38.991Z,94.30
2022-11-29T04:27:49.210Z,94.30
2022-11-29T04:30:23.501Z,94.30
2022-11-29T04:33:22.262Z,94.30
2022-11-29T04:36:28.292Z,94.30
2022-11-29T04:39:01.198Z,94.00
2022-11-29T04:41:41.312Z,94.00
2022-11-29T04:44:46.311Z,94.00
2022-11-29T04:47:34.820Z,93.80
2022-11-29T04:50:13.152Z,93.80
2022-11-29T04:52:45.896Z,93.60
2022-11-29T04:55:26.129Z,94.10
2022-11-29T04:58:19.221Z,93.70
2022-11-29T05:01:01.342Z,93.70
2022-11-29T05:03:41.432Z,94.00
2022-11-29T05:06:27.594Z,93.90
2022-11-29T05:09:06.927Z,93.90
2022-11-29T05:11:53.428Z,93.90
2022-11-29T05:14:49.155Z,93.90
2022-11-29T05:17:26.312Z,93.90
2022-11-29T05:20:13.006Z,93.80
2022-11-29T05:23:04.720Z,93.60
2022-11-29T05:25:39.752Z,93.40
2022-11-29T05:28:22.400Z,93.70
2022-11-29T05:31:06.431Z,93.80
2022-11-29T05:33:54.472Z,93.80
2022-11-29T05:37:00.074Z,94.10
2022-11-29T05:39:46.316Z,94.20
2022-11-29T05:42:38.264Z,94.10
2022-11-29T05:45:25.341Z,94.00
2022-11-29T05:48:11.549Z,94.10
2022-11-29T05:51:23.639Z,94.20
2022-11-29T05:54:20.012Z,94.30
2022-11-29T05:56:52.971Z,94.20
2022-11-29T05:59:30.786Z,94.40
2022-11-29T06:01:57.965Z,94.60
2022-11-29T06:04:48.047Z,94.50
2022-11-29T06:07:22.464Z,94.30
2022-11-29T06:10:01.855Z,94.30
2022-11-29T06:12:31.841Z,94.00
2022-11-29T06:15:27.967Z,94.00
2022-11-29T06:18:06.817Z,94.00
2022-11-29T06:21:18.514Z,94.10
2022-11-29T06:24:25.880Z,93.90
2022-11-29T06:27:08.201Z,93.80
2022-11-29T06:29:38.365Z,94.00
2022-11-29T06:32:21.584Z,93.90
2022-11-29T06:35:07.459Z,93.90
2022-11-29T06:37:48.227Z,93.90
2022-11-29T06:40:16.242Z,93.90
2022-11-29T06:42:43.632Z,93.90
2022-11-29T06:45:13.801Z,93.80
2022-11-29T06:48:06.398Z,93.90
2022-11-29T06:50:54.128Z,93.80
2022-11-29T06:53:42.019Z,93.80
2022-11-29T06:56:35.717Z,93.90
2022-11-29T06:59:08.553Z,93.90
2022-11-29T07:01:57.195Z,93.80
2022-11-29T07:04:49.316Z,94.00
2022-11-29T07:07:22.634Z,94.10
2022-11-29T07:09:53.109Z,94.10
2022-11-29T07:12:20.629Z,94.00
2022-11-29T07:14:48.291Z,93.90
2022-11-29T07:17:31.072Z,94.00
2022-11-29T07:20:12.733Z,94.10
2022-11-29T07:22:51.033Z,93.90
2022-11-29T07:25:18.139Z,93.90
2022-11-29T07:28:02.220Z,93.90
2022-11-29T07:31:02.347Z,94.20
2022-11-29T07:33:29.544Z,94.40
2022-11-29T07:36:19.428Z,94.30
2022-11-29T07:38:52.396Z,94.30
2022-11-29T07:41:36.717Z,94.20
2022-11-29T07:44:35.405Z,94.10
2022-11-29T07:47:02.743Z,94.10
2022-11-29T07:49:29.986Z,94.20
2022-11-29T07:51:57.395Z,94.10
2022-11-29T07:54:24.765Z,94.00
2022-11-29T07:56:51.909Z,94.10
2022-11-29T07:59:20.015Z,94.30
2022-11-29T08:01:47.311Z,94.30
2022-11-29T08:04:14.525Z,93.90
2022-11-29T08:06:42.174Z,93.90
2022-11-29T08:09:09.481Z,93.80
2022-11-29T08:11:36.760Z,94.00
2022-11-29T08:14:05.264Z,94.10
2022-11-29T08:16:32.866Z,94.30
2022-11-29T08:19:00.512Z,94.20
2022-11-29T08:21:27.978Z,94.10
2022-11-29T08:23:55.151Z,93.90
2022-11-29T08:26:26.778Z,93.80
2022-11-29T08:28:57.017Z,94.00
2022-11-29T08:31:24.242Z,94.10
2022-11-29T08:33:51.433Z,94.20
2022-11-29T08:36:20.073Z,94.50
2022-11-29T08:38:48.186Z,94.60
2022-11-29T08:41:17.186Z,94.50
2022-11-29T08:43:44.720Z,94.40
2022-11-29T08:46:17.974Z,94.40
2022-11-29T08:48:46.842Z,94.40
2022-11-29T08:51:14.858Z,94.50
2022-11-29T08:53:42.078Z,94.40
2022-11-29T08:57:04.574Z,94.20
2022-11-29T08:59:02.532Z,94.10
2022-11-29T09:01:30.119Z,94.00
2022-11-29T09:04:00.116Z,93.70
2022-11-29T09:06:29.850Z,93.60
2022-11-29T09:08:58.226Z,93.60
2022-11-29T09:11:26.800Z,93.80
2022-11-29T09:13:58.364Z,93.90
2022-11-29T09:16:28.772Z,93.90
2022-11-29T09:18:56.286Z,94.00
2022-11-29T09:21:25.728Z,93.70
2022-11-29T09:23:58.631Z,93.50
2022-11-29T09:26:29.140Z,93.40
2022-11-29T09:28:58.500Z,93.40
2022-11-29T09:31:27.183Z,93.70
2022-11-29T09:33:55.353Z,93.60
2022-11-29T09:36:28.118Z,93.70
2022-11-29T09:38:57.398Z,93.60
2022-11-29T09:41:36.506Z,93.30
2022-11-29T09:44:09.632Z,93.20
2022-11-29T09:47:00.914Z,92.80
2022-11-29T09:49:37.124Z,92.50
2022-11-29T09:52:22.300Z,92.30
2022-11-29T09:55:10.103Z,92.40
2022-11-29T09:57:39.635Z,92.30
2022-11-29T10:00:14.281Z,92.00
2022-11-29T10:02:47.641Z,92.00
2022-11-29T10:05:28.501Z,92.20
2022-11-29T10:08:02.219Z,92.30
2022-11-29T10:10:32.453Z,91.90
2022-11-29T10:13:15.669Z,91.70
2022-11-29T10:15:46.878Z,91.50
2022-11-29T10:18:32.300Z,91.40
2022-11-29T10:21:06.360Z,91.50
2022-11-29T10:23:38.665Z,91.10
2022-11-29T10:26:08.873Z,90.90
2022-11-29T10:28:37.263Z,90.50
2022-11-29T10:31:27.123Z,90.20
2022-11-29T10:33:56.226Z,89.60
2022-11-29T10:36:44.449Z,89.60
2022-11-29T10:39:25.708Z,90.30
2022-11-29T10:41:59.486Z,90.30
2022-11-29T10:44:27.525Z,90.20
2022-11-29T10:46:55.962Z,90.30
2022-11-29T10:49:27.540Z,90.30
2022-11-29T10:51:54.713Z,90.40
2022-11-29T10:54:42.562Z,89.30
2022-11-29T10:57:15.880Z,86.20
2022-11-29T11:00:09.906Z,85.30
2022-11-29T11:02:37.582Z,84.60
2022-11-29T11:05:13.161Z,85.00
2022-11-29T11:07:40.875Z,85.50
2022-11-29T11:10:23.220Z,84.90
2022-11-29T11:13:19.957Z,86.10
2022-11-29T11:15:47.340Z,86.50
2022-11-29T11:18:23.683Z,87.00
2022-11-29T11:20:57.236Z,87.50
2022-11-29T11:23:31.187Z,88.10
2022-11-29T11:26:00.324Z,88.90
2022-11-29T11:28:31.731Z,89.20
2022-11-29T11:31:02.272Z,89.10
2022-11-29T11:33:32.724Z,89.00
2022-11-29T11:36:12.005Z,89.30
2022-11-29T11:38:57.383Z,89.60
2022-11-29T11:41:50.465Z,89.60
2022-11-29T11:47:21.455Z,90.10
2022-11-29T11:50:02.295Z,87.90
2022-11-29T11:52:39.833Z,83.70
2022-11-29T11:55:39.232Z,76.00
2022-11-29T11:58:17.062Z,60.30
2022-11-29T12:01:03.841Z,42.20
2022-11-29T12:03:43.690Z,35.30
2022-11-29T12:06:25.930Z,34.90
2022-11-29T12:09:18.588Z,39.30
2022-11-29T12:11:49.430Z,43.40
2022-11-29T12:14:46.340Z,47.60
2022-11-29T12:17:33.665Z,51.10
2022-11-29T12:20:15.315Z,55.10
2022-11-29T12:23:08.892Z,60.00
2022-11-29T12:25:46.742Z,64.40
2022-11-29T12:28:20.306Z,67.00
2022-11-29T12:31:15.935Z,68.30
2022-11-29T12:34:00.172Z,70.20
2022-11-29T12:36:55.672Z,69.30
2022-11-29T12:39:38.694Z,69.00
2022-11-29T12:42:26.197Z,70.40
2022-11-29T12:45:29.579Z,71.30
2022-11-29T12:48:02.886Z,71.70
2022-11-29T12:50:48.919Z,70.80
2022-11-29T12:53:34.424Z,70.50
2022-11-29T12:56:11.023Z,69.60
2022-11-29T12:58:53.293Z,69.70
2022-11-29T13:01:38.586Z,70.20
2022-11-29T13:04:23.805Z,68.00
2022-11-29T13:07:15.583Z,59.40
2022-11-29T13:10:03.352Z,54.90
2022-11-29T13:12:51.316Z,57.80
2022-11-29T13:15:21.316Z,60.00
2022-11-29T13:18:00.369Z,62.30
2022-11-29T13:20:37.624Z,65.40
2022-11-29T13:23:16.233Z,68.60
2022-11-29T13:25:47.090Z,71.10
2022-11-29T13:28:26.301Z,72.20
2022-11-29T13:30:58.874Z,72.00
2022-11-29T13:33:28.987Z,72.70
2022-11-29T13:36:19.201Z,72.90
2022-11-29T13:39:08.755Z,72.00
2022-11-29T13:41:55.304Z,72.50
2022-11-29T13:44:39.199Z,69.40
2022-11-29T13:47:12.499Z,67.60
2022-11-29T13:50:06.175Z,61.60
2022-11-29T13:52:42.409Z,59.20
2022-11-29T13:55:12.593Z,53.20
2022-11-29T13:58:17.768Z,46.30
2022-11-29T14:00:45.320Z,44.20
2022-11-29T14:03:25.930Z,41.90
2022-11-29T14:06:13.261Z,40.70
2022-11-29T14:09:10.805Z,39.50
2022-11-29T14:11:53.746Z,40.00
2022-11-29T14:14:52.036Z,41.20
2022-11-29T14:17:47.510Z,41.80
2022-11-29T14:20:24.884Z,45.00
2022-11-29T14:23:04.305Z,46.50
2022-11-29T14:28:22.428Z,48.20
2022-11-29T14:31:02.992Z,49.40
2022-11-29T14:34:01.865Z,50.00
2022-11-29T14:36:49.938Z,53.20
2022-11-29T14:39:35.138Z,56.00
2022-11-29T14:42:18.981Z,58.40
2022-11-29T14:44:56.038Z,60.40
2022-11-29T14:47:32.353Z,59.50
2022-11-29T14:50:04.052Z,60.70
2022-11-29T14:52:39.436Z,61.40
2022-11-29T14:55:08.521Z,63.20
2022-11-29T14:57:51.560Z,64.40
2022-11-29T15:00:32.490Z,66.30
2022-11-29T15:03:09.672Z,67.30
2022-11-29T15:05:50.779Z,68.00
2022-11-29T15:08:32.952Z,69.60
2022-11-29T15:11:08.095Z,71.20
2022-11-29T15:13:36.870Z,72.30
2022-11-29T15:16:10.113Z,73.70
2022-11-29T15:18:52.454Z,75.10
2022-11-29T15:21:50.207Z,74.70
2022-11-29T15:24:18.129Z,75.30
2022-11-29T15:27:00.901Z,76.30
2022-11-29T15:29:29.919Z,76.60
2022-11-29T15:32:00.717Z,77.40
2022-11-29T15:34:33.839Z,78.30
2022-11-29T15:37:01.672Z,79.20
2022-11-29T15:39:33.004Z,79.90
2022-11-29T15:42:19.329Z,80.50
2022-11-29T15:44:48.806Z,81.30
2022-11-29T15:47:25.274Z,82.40
2022-11-29T15:49:54.040Z,83.00
2022-11-29T15:52:41.583Z,83.40
2022-11-29T15:55:14.041Z,83.80
2022-11-29T15:57:44.550Z,83.90
2022-11-29T16:00:19.891Z,83.80
2022-11-29T16:02:51.986Z,83.40
2022-11-29T16:05:40.736Z,82.80
2022-11-29T16:08:14.608Z,81.90
2022-11-29T16:10:47.397Z,82.60
2022-11-29T16:13:32.148Z,82.60
2022-11-29T16:16:22.422Z,83.00
2022-11-29T16:18:50.728Z,83.10
2022-11-29T16:21:28.807Z,83.10
2022-11-29T16:23:57.195Z,82.80
2022-11-29T16:26:28.591Z,82.70
2022-11-29T16:28:57.853Z,82.70
2022-11-29T16:31:34.785Z,82.80
2022-11-29T16:34:14.849Z,83.00
2022-11-29T16:36:42.138Z,83.50
2022-11-29T16:39:25.283Z,83.20
2022-11-29T16:42:13.759Z,82.80
2022-11-29T16:44:41.229Z,83.00
2022-11-29T16:47:29.261Z,83.00
2022-11-29T16:50:02.621Z,83.10
2022-11-29T16:52:32.249Z,83.60
2022-11-29T16:54:59.882Z,83.50
2022-11-29T16:57:28.690Z,83.60
2022-11-29T16:59:55.840Z,83.90
2022-11-29T17:02:23.504Z,84.30
2022-11-29T17:04:51.498Z,85.00
2022-11-29T17:07:26.930Z,84.20
2022-11-29T17:09:54.616Z,83.70
2022-11-29T17:12:22.184Z,84.00
2022-11-29T17:14:49.489Z,84.00
2022-11-29T17:17:18.770Z,84.30
2022-11-29T17:19:46.172Z,84.20
2022-11-29T17:22:13.319Z,84.00
2022-11-29T17:24:46.229Z,84.00
2022-11-29T17:27:15.064Z,83.80
2022-11-29T17:29:42.197Z,83.80
2022-11-29T17:32:09.489Z,84.00
2022-11-29T17:34:36.688Z,84.20
2022-11-29T17:37:03.989Z,84.50
2022-11-29T17:39:31.160Z,84.30
2022-11-29T17:41:58.345Z,84.50
2022-11-29T17:44:25.685Z,84.60
2022-11-29T17:46:52.866Z,84.60
2022-11-29T17:49:20.080Z,84.90
2022-11-29T17:51:52.353Z,85.10
2022-11-29T17:54:24.076Z,85.20
2022-11-29T17:56:51.855Z,85.10
2022-11-29T17:59:19.188Z,85.20
2022-11-29T18:01:49.230Z,85.40
2022-11-29T18:04:17.742Z,85.70
2022-11-29T18:06:50.146Z,86.10
2022-11-29T18:09:18.763Z,86.30
2022-11-29T18:11:49.135Z,86.50
2022-11-29T18:14:28.153Z,86.60
2022-11-29T18:16:55.572Z,86.90
2022-11-29T18:19:23.236Z,87.20
2022-11-29T18:21:51.123Z,87.30
2022-11-29T18:24:18.651Z,87.30
2022-11-29T18:26:45.929Z,87.20
2022-11-29T18:29:13.276Z,87.00
2022-11-29T18:31:43.462Z,86.90
2022-11-29T18:34:12.975Z,86.60
2022-11-29T18:36:43.074Z,86.70
2022-11-29T18:39:16.669Z,86.40
2022-11-29T18:41:47.083Z,86.10
2022-11-29T18:44:16.434Z,85.90
2022-11-29T18:46:45.063Z,86.00
2022-11-29T18:49:16.127Z,86.30
2022-11-29T18:51:45.791Z,86.50
2022-11-29T18:54:14.870Z,86.50
2022-11-29T18:56:43.696Z,86.60
2022-11-29T18:59:14.643Z,85.70
2022-11-29T19:01:45.062Z,86.30
2022-11-29T19:04:15.247Z,86.60
2022-11-29T19:06:43.259Z,86.80
2022-11-29T19:09:21.281Z,86.90
2022-11-29T19:11:49.693Z,87.00
2022-11-29T19:14:16.882Z,87.10
2022-11-29T19:16:46.157Z,87.40
2022-11-29T19:19:13.571Z,86.90
2022-11-29T19:21:41.254Z,87.90
2022-11-29T19:24:15.531Z,88.00
2022-11-29T19:26:45.068Z,88.70
2022-11-29T19:29:13.732Z,89.10
2022-11-29T19:31:41.583Z,89.10
2022-11-29T19:34:08.766Z,89.30
2022-11-29T19:36:42.826Z,89.40
2022-11-29T19:39:16.237Z,90.30
2022-11-29T19:41:45.505Z,90.20
2022-11-29T19:44:12.817Z,90.40
2022-11-29T19:46:45.768Z,90.40
2022-11-29T19:49:13.240Z,90.40
2022-11-29T19:51:40.603Z,90.40
2022-11-29T19:54:09.149Z,90.40
2022-11-29T19:56:36.828Z,90.40
2022-11-29T19:59:05.375Z,90.10
2022-11-29T20:01:40.364Z,90.40
2022-11-29T20:04:10.333Z,90.40
2022-11-29T20:06:37.578Z,90.40
2022-11-29T20:09:05.089Z,90.40
2022-11-29T20:11:32.254Z,90.40
2022-11-29T20:14:01.838Z,90.30
2022-11-29T20:16:30.034Z,90.40
2022-11-29T20:18:57.991Z,90.40
2022-11-29T20:21:30.662Z,90.50
2022-11-29T20:24:03.444Z,90.50
2022-11-29T20:26:33.086Z,90.70
2022-11-29T20:29:02.008Z,90.80
2022-11-29T20:31:29.637Z,90.80
2022-11-29T20:33:59.693Z,90.70
2022-11-29T20:36:37.588Z,90.80
2022-11-29T20:39:19.551Z,90.90
2022-11-29T20:41:54.515Z,91.10
2022-11-29T20:44:37.663Z,91.10
2022-11-29T20:47:16.380Z,91.10
2022-11-29T20:49:43.764Z,91.20
2022-11-29T20:52:33.183Z,91.10
2022-11-29T20:55:00.717Z,91.20
2022-11-29T20:57:28.507Z,91.20
2022-11-29T20:59:55.657Z,90.80
2022-11-29T21:02:23.283Z,91.10
2022-11-29T21:04:50.732Z,90.90
2022-11-29T21:07:17.966Z,90.90
2022-11-29T21:09:45.661Z,90.60
2022-11-29T21:12:13.485Z,91.00
2022-11-29T21:14:40.928Z,90.80
2022-11-29T21:17:08.900Z,90.70
2022-11-29T21:19:36.655Z,90.70
2022-11-29T21:22:03.797Z,90.70
2022-11-29T21:25:08.559Z,90.70
2022-11-29T21:27:36.327Z,90.70
2022-11-29T21:30:07.294Z,90.50
2022-11-29T21:32:34.776Z,90.50
2022-11-29T21:35:01.902Z,90.40
2022-11-29T21:37:30.661Z,90.50
2022-11-29T21:39:58.049Z,90.40
2022-11-29T21:42:25.214Z,90.40
2022-11-29T21:44:52.408Z,90.30
2022-11-29T21:47:20.208Z,90.30
2022-11-29T21:49:48.893Z,90.30
2022-11-29T21:52:21.988Z,90.30
2022-11-29T21:54:50.322Z,90.30
2022-11-29T21:57:17.471Z,90.30
2022-11-29T21:59:44.689Z,90.30
2022-11-29T22:02:12.036Z,90.20
2022-11-29T22:04:39.248Z,90.20
2022-11-29T22:07:06.377Z,90.30
2022-11-29T22:09:33.489Z,90.20
2022-11-29T22:12:06.624Z,90.20
2022-11-29T22:14:47.038Z,90.30
2022-11-29T22:17:14.369Z,90.30
2022-11-29T22:19:42.446Z,90.20
2022-11-29T22:22:10.812Z,90.20
2022-11-29T22:24:38.050Z,90.20
2022-11-29T22:27:05.268Z,90.10
2022-11-29T22:29:32.523Z,90.30
2022-11-29T22:32:01.055Z,90.30
2022-11-29T22:34:28.409Z,90.30
2022-11-29T22:36:55.765Z,90.30
2022-11-29T22:39:23.933Z,90.30
2022-11-29T22:41:54.688Z,90.30
2022-11-29T22:44:23.390Z,90.30
2022-11-29T22:46:51.169Z,90.40
2022-11-29T22:49:18.442Z,90.50
2022-11-29T22:51:45.611Z,90.50
2022-11-29T22:54:15.472Z,90.50
2022-11-29T22:56:44.240Z,90.50
2022-11-29T22:59:11.660Z,90.50
2022-11-29T23:01:40.852Z,90.60
2022-11-29T23:04:10.209Z,90.60
2022-11-29T23:06:40.402Z,90.70
2022-11-29T23:09:15.925Z,90.70
2022-11-29T23:11:45.015Z,90.70
2022-11-29T23:14:12.670Z,90.70
2022-11-29T23:16:40.501Z,90.70
2022-11-29T23:19:08.056Z,90.70
2022-11-29T23:21:38.384Z,90.70
2022-11-29T23:24:06.409Z,90.80
2022-11-29T23:26:40.023Z,90.80
2022-11-29T23:29:10.245Z,90.80
2022-11-29T23:31:37.838Z,90.60
2022-11-29T23:34:05.449Z,90.40
2022-11-29T23:36:33.381Z,90.60
2022-11-29T23:39:00.986Z,90.70
2022-11-29T23:41:28.233Z,90.60
2022-11-29T23:43:55.485Z,90.50
2022-11-29T23:46:24.358Z,90.50
2022-11-29T23:48:52.298Z,90.60
2022-11-29T23:51:20.370Z,90.60
2022-11-29T23:53:54.105Z,90.60
2022-11-29T23:56:22.723Z,90.60
2022-11-29T23:58:50.277Z,90.60
